Time;durP1;ratioP1;P1;durP2;ratioP2;P2;SDS_P1;SDS_P2;PMS_P1;PMS_P2;Temp;Humidity;BMP_temperature;BMP_pressure;BME280_temperature;BME280_humidity;BME280_pressure;Samples;Min_cycle;Max_cycle;Signal;HPM_P1;HPM_P2
2023/04/24 00:01:59;;;;;;;2.15;1.95;;;23.10;42.80;;;;;;4992324;28;20057;-59
2023/04/24 00:04:26;;;;;;;2.03;1.92;;;23.10;42.80;;;;;;4994673;28;20109;-59
2023/04/24 00:06:56;;;;;;;2.42;2.22;;;23.10;42.80;;;;;;4994006;28;20495;-59
2023/04/24 00:09:24;;;;;;;;;;;23.10;42.80;;;;;;4994755;28;20449;-58
2023/04/24 00:11:51;;;;;;;2.10;2.00;;;23.10;42.80;;;;;;4992668;28;19929;-60
2023/04/24 00:14:18;;;;;;;3.13;1.92;;;23.10;42.80;;;;;;4993914;28;20133;-58
2023/04/24 00:16:45;;;;;;;2.15;1.95;;;23.10;42.90;;;;;;4994349;28;20050;-58
2023/04/24 00:19:13;;;;;;;2.03;1.92;;;23.10;42.90;;;;;;4994432;28;20046;-58
2023/04/24 00:21:41;;;;;;;2.53;2.33;;;23.10;42.90;;;;;;4994540;28;20084;-58
2023/04/24 00:24:09;;;;;;;2.28;2.17;;;23.10;42.90;;;;;;4992126;28;20100;-58
2023/04/24 00:26:36;;;;;;;2.35;2.15;;;23.10;43.00;;;;;;4994576;28;20065;-58
2023/04/24 00:29:03;;;;;;;2.28;2.10;;;23.10;43.00;;;;;;4993497;28;20050;-58
2023/04/24 00:31:30;;;;;;;1.90;1.80;;;23.10;43.00;;;;;;4994051;28;20064;-58
2023/04/24 00:33:58;;;;;;;1.85;1.67;;;23.10;43.00;;;;;;4993940;28;20065;-58
2023/04/24 00:36:25;;;;;;;1.85;1.75;;;23.00;43.00;;;;;;4994109;28;20149;-58
2023/04/24 00:38:52;;;;;;;3.20;1.85;;;23.00;43.00;;;;;;4993586;28;20499;-58
2023/04/24 00:41:20;;;;;;;2.30;2.08;;;23.00;43.00;;;;;;4993404;28;20141;-58
2023/04/24 00:43:48;;;;;;;2.15;1.98;;;23.00;43.00;;;;;;4994002;28;20507;-58
2023/04/24 00:46:16;;;;;;;2.20;2.10;;;23.00;43.00;;;;;;4994208;28;20137;-58
2023/04/24 00:48:43;;;;;;;1.75;1.65;;;23.10;43.00;;;;;;4993633;28;20046;-58
2023/04/24 00:51:11;;;;;;;2.05;1.95;;;23.10;43.00;;;;;;4994131;28;20097;-59
2023/04/24 00:53:38;;;;;;;2.22;2.13;;;23.10;43.00;;;;;;4992851;28;20054;-59
2023/04/24 00:56:05;;;;;;;1.95;1.83;;;23.10;42.90;;;;;;4993864;28;20513;-58
2023/04/24 00:58:33;;;;;;;2.10;2.00;;;23.10;42.90;;;;;;4993110;28;20061;-58
2023/04/24 01:01:00;;;;;;;1.70;1.60;;;23.10;42.90;;;;;;4993282;28;20050;-59
2023/04/24 01:03:31;;;;;;;1.92;1.83;;;23.10;42.90;;;;;;4993151;28;20073;-59
2023/04/24 01:05:59;;;;;;;2.30;2.10;;;23.10;42.90;;;;;;4993465;28;20050;-59
2023/04/24 01:08:28;;;;;;;1.75;1.65;;;23.10;42.80;;;;;;4994120;28;20069;-58
2023/04/24 01:10:57;;;;;;;1.90;1.80;;;23.10;42.80;;;;;;5009502;28;20077;-59
2023/04/24 01:13:24;;;;;;;2.35;2.15;;;23.10;42.80;;;;;;5012258;28;20049;-59
2023/04/24 01:15:52;;;;;;;1.80;1.70;;;23.10;42.90;;;;;;5013153;28;20049;-58
2023/04/24 01:18:21;;;;;;;2.05;1.70;;;23.10;42.80;;;;;;5011588;28;20050;-58
2023/04/24 01:20:50;;;;;;;2.05;1.95;;;23.10;42.80;;;;;;5012983;28;20092;-59
2023/04/24 01:23:18;;;;;;;2.10;1.88;;;23.10;42.80;;;;;;5013328;28;20487;-58
2023/04/24 01:25:47;;;;;;;1.83;1.73;;;23.00;42.80;;;;;;5013153;28;20427;-58
2023/04/24 01:28:14;;;;;;;2.20;1.98;;;23.10;42.80;;;;;;5012530;28;20770;-58
2023/04/24 01:30:41;;;;;;;2.35;2.15;;;23.10;42.90;;;;;;5012537;28;20499;-59
2023/04/24 01:33:09;;;;;;;2.05;1.95;;;23.00;42.80;;;;;;5012845;28;20088;-59
2023/04/24 01:35:37;;;;;;;2.30;2.10;;;23.00;42.80;;;;;;5012867;28;20169;-59
2023/04/24 01:38:05;;;;;;;1.95;1.85;;;23.00;42.80;;;;;;5012565;28;20049;-59
2023/04/24 01:40:33;;;;;;;2.20;2.10;;;23.00;42.80;;;;;;5012528;28;20052;-58
2023/04/24 01:43:00;;;;;;;1.95;1.85;;;23.00;42.80;;;;;;5012740;28;20379;-58
2023/04/24 01:45:27;;;;;;;2.05;1.80;;;23.00;42.80;;;;;;5012431;28;20045;-58
2023/04/24 01:47:54;;;;;;;2.10;1.90;;;23.00;42.80;;;;;;5013018;28;20050;-58
2023/04/24 01:50:21;;;;;;;1.95;1.85;;;23.00;42.90;;;;;;5012898;28;20050;-59
2023/04/24 01:52:49;;;;;;;1.90;1.80;;;23.00;43.00;;;;;;5012002;28;20056;-59
2023/04/24 01:55:17;;;;;;;2.35;2.15;;;23.00;43.00;;;;;;5013247;28;20045;-58
2023/04/24 01:57:44;;;;;;;2.17;1.98;;;23.00;43.00;;;;;;5012869;28;20136;-58
2023/04/24 02:00:12;;;;;;;2.08;1.88;;;23.00;43.00;;;;;;5012490;28;20375;-59
2023/04/24 02:02:42;;;;;;;1.80;1.70;;;23.00;43.10;;;;;;5012339;28;20046;-58
2023/04/24 02:05:13;;;;;;;2.05;1.85;;;22.90;43.00;;;;;;5012800;28;20131;-59
2023/04/24 02:07:40;;;;;;;1.90;1.80;;;23.00;43.10;;;;;;5012839;28;20141;-59
2023/04/24 02:10:08;;;;;;;1.92;1.83;;;22.90;43.00;;;;;;5012744;28;20052;-58
2023/04/24 02:12:35;;;;;;;2.08;1.88;;;23.00;43.10;;;;;;5016507;28;20136;-59
2023/04/24 02:15:02;;;;;;;1.60;1.50;;;22.90;43.00;;;;;;5016039;28;20041;-58
2023/04/24 02:17:30;;;;;;;1.80;1.70;;;22.90;43.00;;;;;;5016322;28;20064;-59
2023/04/24 02:19:57;;;;;;;1.85;1.75;;;22.90;43.60;;;;;;5015997;28;20049;-58
2023/04/24 02:22:24;;;;;;;2.35;1.58;;;22.90;43.00;;;;;;5015082;28;20046;-59
2023/04/24 02:24:51;;;;;;;1.83;1.73;;;22.90;42.90;;;;;;5015025;28;20054;-59
2023/04/24 02:27:19;;;;;;;1.60;1.50;;;23.00;43.00;;;;;;5015924;28;20471;-59
2023/04/24 02:29:46;;;;;;;1.65;1.55;;;23.00;42.90;;;;;;5016435;28;20387;-58
2023/04/24 02:32:15;;;;;;;2.05;1.90;;;23.00;42.90;;;;;;4998240;28;20136;-58
2023/04/24 02:34:42;;;;;;;1.55;1.45;;;23.00;42.90;;;;;;5013778;28;20057;-58
2023/04/24 02:37:10;;;;;;;1.70;1.60;;;23.00;42.80;;;;;;5015016;28;20103;-58
2023/04/24 02:39:37;;;;;;;1.90;1.75;;;23.00;42.80;;;;;;5002043;28;20050;-58
2023/04/24 02:42:04;;;;;;;2.40;1.77;;;23.00;42.80;;;;;;4996016;28;20069;-59
2023/04/24 02:44:31;;;;;;;2.05;1.85;;;23.00;42.80;;;;;;4995726;28;20077;-59
2023/04/24 02:46:58;;;;;;;3.03;1.90;;;23.00;42.80;;;;;;4995575;28;20050;-58
2023/04/24 02:49:25;;;;;;;2.10;1.95;;;23.00;42.80;;;;;;4996023;28;20054;-59
2023/04/24 02:51:53;;;;;;;2.20;2.00;;;23.00;42.80;;;;;;4996224;28;20129;-58
2023/04/24 02:54:20;;;;;;;2.13;2.03;;;23.00;42.80;;;;;;4994864;28;20050;-58
2023/04/24 02:56:47;;;;;;;1.80;1.70;;;22.90;42.80;;;;;;4995347;28;20133;-58
2023/04/24 02:59:14;;;;;;;1.77;1.67;;;22.90;42.80;;;;;;4995835;28;20402;-58
2023/04/24 03:01:41;;;;;;;1.80;1.70;;;22.90;42.80;;;;;;4995716;28;20142;-58
2023/04/24 03:04:10;;;;;;;2.58;2.38;;;22.90;42.80;;;;;;4995861;28;20077;-59
2023/04/24 03:06:38;;;;;;;1.80;1.45;;;22.90;42.80;;;;;;4996074;28;20050;-58
2023/04/24 03:09:06;;;;;;;2.00;1.90;;;22.90;42.80;;;;;;4995695;28;20141;-58
2023/04/24 03:11:33;;;;;;;1.80;1.70;;;22.90;42.80;;;;;;4995749;28;20047;-59
2023/04/24 03:14:00;;;;;;;1.92;1.83;;;22.90;42.80;;;;;;4995600;28;20069;-59
2023/04/24 03:16:27;;;;;;;1.40;1.40;;;22.90;42.80;;;;;;4995849;28;20049;-58
2023/04/24 03:18:54;;;;;;;1.88;1.65;;;22.90;42.80;;;;;;4995597;28;20052;-58
2023/04/24 03:21:22;;;;;;;1.63;1.52;;;22.90;42.80;;;;;;4995620;28;20058;-58
2023/04/24 03:23:49;;;;;;;2.42;2.05;;;22.90;42.80;;;;;;5009228;28;20076;-58
2023/04/24 03:26:16;;;;;;;2.22;2.03;;;22.90;42.80;;;;;;5014373;28;20137;-59
2023/04/24 03:28:43;;;;;;;1.63;1.52;;;22.90;42.80;;;;;;5014926;28;20502;-59
2023/04/24 03:31:10;;;;;;;2.15;1.50;;;22.90;42.80;;;;;;5014818;28;20092;-58
2023/04/24 03:33:38;;;;;;;1.63;1.52;;;22.90;42.80;;;;;;5014183;28;20053;-58
2023/04/24 03:36:05;;;;;;;1.95;1.75;;;22.90;42.80;;;;;;5014746;28;20129;-58
2023/04/24 03:38:32;;;;;;;1.75;1.65;;;22.90;42.80;;;;;;5013984;28;20046;-58
2023/04/24 03:40:59;;;;;;;1.80;1.70;;;22.90;42.90;;;;;;5013769;28;20084;-59
2023/04/24 03:43:27;;;;;;;2.00;1.75;;;22.90;42.90;;;;;;5000088;28;20057;-58
2023/04/24 03:45:54;;;;;;;3.20;1.70;;;22.90;43.00;;;;;;5009899;28;20498;-58
2023/04/24 03:48:21;;;;;;;2.10;1.90;;;22.90;43.00;;;;;;5014531;28;20060;-59
2023/04/24 03:50:48;;;;;;;1.60;1.50;;;22.90;43.00;;;;;;5013103;28;20070;-58
2023/04/24 03:53:15;;;;;;;3.70;1.50;;;22.90;43.00;;;;;;5014783;28;20136;-58
2023/04/24 03:55:42;;;;;;;1.92;1.83;;;22.90;43.00;;;;;;5014754;28;20045;-58
2023/04/24 03:58:10;;;;;;;1.73;1.63;;;22.90;43.00;;;;;;5014155;28;20072;-59
2023/04/24 04:00:40;;;;;;;2.00;1.80;;;22.90;43.00;;;;;;5014481;28;20383;-59
2023/04/24 04:03:07;;;;;;;1.70;1.60;;;22.90;43.00;;;;;;5011440;28;20050;-58
2023/04/24 04:05:34;;;;;;;2.03;1.85;;;22.90;42.90;;;;;;5014528;28;20046;-58
2023/04/24 04:08:01;;;;;;;1.60;1.50;;;22.90;43.40;;;;;;5012966;28;20058;-58
2023/04/24 04:10:29;;;;;;;1.83;1.73;;;22.90;42.80;;;;;;4999903;28;20089;-58
2023/04/24 04:12:56;;;;;;;1.73;1.63;;;22.90;42.90;;;;;;5007626;28;20050;-59
2023/04/24 04:15:23;;;;;;;1.70;1.60;;;22.90;42.80;;;;;;5014357;28;20107;-59
2023/04/24 04:17:50;;;;;;;1.63;1.52;;;22.90;42.80;;;;;;5011422;28;20056;-59
2023/04/24 04:20:18;;;;;;;1.90;1.75;;;22.90;42.70;;;;;;5004405;28;20046;-58
2023/04/24 04:22:45;;;;;;;1.80;1.52;;;23.00;42.90;;;;;;4999147;28;20051;-59
2023/04/24 04:25:13;;;;;;;1.40;1.30;;;23.00;42.70;;;;;;5001066;28;20477;-58
2023/04/24 04:27:41;;;;;;;1.85;1.73;;;23.00;42.70;;;;;;5012034;28;20049;-58
2023/04/24 04:30:09;;;;;;;1.58;1.48;;;23.00;42.70;;;;;;5012084;28;20052;-59
2023/04/24 04:32:37;;;;;;;1.80;1.70;;;23.00;42.60;;;;;;5013090;28;20528;-58
2023/04/24 04:35:04;;;;;;;1.60;1.50;;;23.00;42.60;;;;;;5011704;28;20145;-58
2023/04/24 04:37:33;;;;;;;1.60;1.50;;;23.00;42.60;;;;;;5008954;28;20108;-59
2023/04/24 04:40:00;;;;;;;1.73;1.60;;;23.00;42.60;;;;;;5009715;28;20145;-59
2023/04/24 04:42:28;;;;;;;1.58;1.48;;;23.00;42.60;;;;;;5009952;28;20050;-59
2023/04/24 04:44:57;;;;;;;1.65;1.55;;;23.00;42.50;;;;;;5012633;28;20042;-59
2023/04/24 04:47:24;;;;;;;1.73;1.63;;;23.00;42.50;;;;;;5012492;28;20077;-58
2023/04/24 04:49:51;;;;;;;2.00;1.73;;;23.10;42.50;;;;;;5013143;28;20478;-58
2023/04/24 04:52:19;;;;;;;1.67;1.58;;;23.10;42.50;;;;;;5011346;28;20441;-58
2023/04/24 04:54:46;;;;;;;2.28;1.98;;;23.10;42.40;;;;;;5013065;28;20506;-58
2023/04/24 04:57:14;;;;;;;1.67;1.58;;;23.10;42.40;;;;;;4994184;28;20043;-58
2023/04/24 04:59:41;;;;;;;1.88;1.70;;;23.10;42.30;;;;;;4997210;28;20046;-58
2023/04/24 05:02:09;;;;;;;1.73;1.63;;;23.20;42.30;;;;;;4995458;28;20046;-58
2023/04/24 05:04:36;;;;;;;1.55;1.45;;;23.20;42.30;;;;;;5011548;28;20413;-58
2023/04/24 05:07:04;;;;;;;1.77;1.67;;;23.20;42.30;;;;;;5011682;28;20046;-58
2023/04/24 05:09:31;;;;;;;1.70;1.60;;;23.20;42.30;;;;;;5011920;28;20510;-58
2023/04/24 05:11:58;;;;;;;1.50;1.40;;;23.20;42.20;;;;;;4993615;28;20072;-58
2023/04/24 05:14:26;;;;;;;1.60;1.50;;;23.20;42.20;;;;;;4996536;28;20494;-58
2023/04/24 05:16:53;;;;;;;1.70;1.60;;;23.30;42.30;;;;;;4999605;28;20483;-58
2023/04/24 05:19:21;;;;;;;2.50;1.48;;;23.20;42.10;;;;;;5004947;28;20053;-58
2023/04/24 05:21:48;;;;;;;1.45;1.38;;;23.20;42.20;;;;;;5004114;28;20048;-58
2023/04/24 05:24:15;;;;;;;1.65;1.38;;;23.30;42.30;;;;;;5005963;28;20065;-57
2023/04/24 05:26:42;;;;;;;1.90;1.80;;;23.20;42.20;;;;;;5006552;28;20050;-59
2023/04/24 05:29:09;;;;;;;1.92;1.50;;;23.30;42.20;;;;;;5006392;28;20087;-60
2023/04/24 05:31:36;;;;;;;1.77;1.67;;;23.30;42.10;;;;;;5000173;28;20557;-60
2023/04/24 05:34:05;;;;;;;4.00;2.13;;;23.30;42.40;;;;;;4994348;28;20084;-56
2023/04/24 05:36:32;;;;;;;1.85;1.70;;;23.30;42.40;;;;;;4999051;28;20104;-60
2023/04/24 05:38:59;;;;;;;2.47;1.60;;;23.30;42.60;;;;;;4995941;28;20470;-59
2023/04/24 05:41:26;;;;;;;3.08;1.63;;;23.30;42.70;;;;;;5001931;28;20076;-58
2023/04/24 05:43:53;;;;;;;3.20;1.73;;;23.30;42.80;;;;;;4998721;28;20267;-59
2023/04/24 05:46:21;;;;;;;4.78;2.05;;;23.40;42.70;;;;;;5006643;28;20132;-59
2023/04/24 05:48:49;;;;;;;1.77;1.67;;;23.40;42.60;;;;;;5004503;28;20045;-60
2023/04/24 05:51:16;;;;;;;2.20;2.00;;;23.40;42.70;;;;;;4997041;28;20046;-58
2023/04/24 05:53:43;;;;;;;6.53;2.00;;;23.50;42.80;;;;;;5008890;28;20069;-58
2023/04/24 05:56:11;;;;;;;5.05;2.30;;;23.60;43.10;;;;;;5000209;28;20137;-59
2023/04/24 05:58:39;;;;;;;2.45;2.08;;;23.60;43.40;;;;;;4982062;28;20060;-59
2023/04/24 06:01:06;;;;;;;5.38;3.15;;;23.60;43.60;;;;;;5005148;28;20050;-61
2023/04/24 06:03:34;;;;;;;7.15;2.45;;;23.70;43.60;;;;;;5003519;28;20556;-58
2023/04/24 06:06:01;;;;;;;5.07;3.33;;;23.70;44.00;;;;;;5008547;28;20046;-58
2023/04/24 06:08:28;;;;;;;8.63;3.13;;;23.80;43.60;;;;;;5006636;28;20470;-60
2023/04/24 06:10:56;;;;;;;7.22;2.90;;;23.80;43.40;;;;;;5012110;28;20128;-59
2023/04/24 06:13:24;;;;;;;12.18;3.22;;;23.90;43.50;;;;;;5004682;28;20057;-59
2023/04/24 06:15:55;;;;;;;11.85;3.80;;;23.90;43.60;;;;;;5003703;28;20133;-59
2023/04/24 06:18:22;;;;;;;10.05;3.90;;;24.00;43.50;;;;;;5004035;28;20084;-56
2023/04/24 06:20:49;;;;;;;5.63;3.92;;;24.10;43.50;;;;;;5005966;28;20120;-58
2023/04/24 06:23:16;;;;;;;22.63;6.50;;;24.10;43.30;;;;;;5002742;28;20054;-58
2023/04/24 06:25:43;;;;;;;13.93;5.07;;;24.20;43.00;;;;;;5002620;28;20227;-55
2023/04/24 06:28:12;;;;;;;16.55;4.75;;;24.20;42.80;;;;;;5000129;28;20510;-56
2023/04/24 06:30:39;;;;;;;11.73;3.60;;;24.30;42.50;;;;;;5002872;28;20056;-55
2023/04/24 06:33:07;;;;;;;14.02;3.88;;;24.30;42.50;;;;;;5016764;28;20402;-56
2023/04/24 06:35:46;;;;;;;7.82;3.67;;;24.30;42.20;;;;;;5002797;28;20046;-58
2023/04/24 06:38:13;;;;;;;13.32;4.10;;;24.40;42.20;;;;;;5005192;28;20061;-58
2023/04/24 06:40:41;;;;;;;9.20;3.53;;;24.40;41.90;;;;;;5004074;28;20062;-59
2023/04/24 06:43:09;;;;;;;11.48;3.95;;;24.50;42.00;;;;;;5004907;28;20100;-58
2023/04/24 06:45:36;;;;;;;7.70;4.22;;;24.50;41.60;;;;;;5001455;28;20046;-58
2023/04/24 06:48:04;;;;;;;7.45;3.05;;;24.60;40.50;;;;;;5000456;28;20054;-53
2023/04/24 06:50:31;;;;;;;9.07;3.30;;;24.70;40.70;;;;;;5003983;28;20057;-58
2023/04/24 06:52:58;;;;;;;4.38;2.97;;;24.70;40.50;;;;;;5003826;28;20508;-58
2023/04/24 06:55:26;;;;;;;9.85;3.92;;;24.70;40.20;;;;;;5002195;28;20679;-59
2023/04/24 06:57:53;;;;;;;7.13;3.20;;;24.70;40.30;;;;;;4999513;28;20042;-57
2023/04/24 07:00:21;;;;;;;11.13;3.88;;;24.70;40.20;;;;;;5000217;28;20061;-58
2023/04/24 07:02:48;;;;;;;4.32;3.35;;;24.80;40.20;;;;;;5001936;28;20045;-58
2023/04/24 07:05:15;;;;;;;7.40;3.95;;;24.80;40.20;;;;;;4997965;28;20066;-58
2023/04/24 07:07:44;;;;;;;10.38;4.53;;;24.80;40.30;;;;;;5000920;28;20060;-59
2023/04/24 07:10:12;;;;;;;7.78;3.72;;;24.80;40.50;;;;;;5001514;28;20053;-59
2023/04/24 07:12:40;;;;;;;5.57;3.47;;;24.90;40.50;;;;;;5005036;28;20056;-58
2023/04/24 07:15:08;;;;;;;12.48;4.50;;;24.90;40.10;;;;;;5011664;28;20054;-59
2023/04/24 07:17:35;;;;;;;11.43;3.72;;;24.90;40.30;;;;;;5001939;28;20409;-59
2023/04/24 07:20:04;;;;;;;10.73;3.35;;;24.90;40.20;;;;;;4997722;28;20054;-58
2023/04/24 07:22:31;;;;;;;7.28;4.30;;;25.00;40.20;;;;;;5001918;28;20046;-56
2023/04/24 07:24:58;;;;;;;8.15;3.58;;;25.00;40.20;;;;;;4996922;28;20077;-57
2023/04/24 07:27:26;;;;;;;7.30;3.42;;;25.00;40.10;;;;;;4998375;28;20077;-57
2023/04/24 07:29:54;;;;;;;9.25;3.55;;;25.10;40.10;;;;;;5001712;28;20125;-58
2023/04/24 07:32:21;;;;;;;6.20;3.53;;;25.10;40.10;;;;;;5001531;28;20046;-58
2023/04/24 07:34:48;;;;;;;12.82;4.45;;;25.10;39.90;;;;;;5003217;28;20077;-58
2023/04/24 07:37:15;;;;;;;8.82;3.67;;;25.20;40.00;;;;;;5000503;28;20050;-57
2023/04/24 07:39:42;;;;;;;8.98;3.60;;;25.10;39.80;;;;;;5002625;28;20510;-58
2023/04/24 07:42:11;;;;;;;8.27;3.55;;;25.20;39.80;;;;;;5001390;28;20041;-57
2023/04/24 07:44:38;;;;;;;7.90;4.55;;;25.20;39.80;;;;;;5001395;28;20084;-57
2023/04/24 07:47:05;;;;;;;10.02;4.13;;;25.20;39.90;;;;;;5002983;28;20081;-59
2023/04/24 07:49:34;;;;;;;14.63;4.50;;;25.30;40.00;;;;;;5001049;28;20121;-58
2023/04/24 07:52:02;;;;;;;7.45;3.55;;;25.30;39.80;;;;;;5000842;28;20058;-57
2023/04/24 07:54:30;;;;;;;9.93;4.32;;;25.30;39.70;;;;;;5000392;28;20064;-58
2023/04/24 07:56:57;;;;;;;13.40;4.13;;;25.40;39.70;;;;;;5015866;28;20038;-58
2023/04/24 07:59:24;;;;;;;9.20;4.63;;;25.40;39.80;;;;;;5002049;28;20053;-55
2023/04/24 08:01:51;;;;;;;10.77;4.25;;;25.40;39.80;;;;;;5000658;28;20050;-56
2023/04/24 08:04:18;;;;;;;9.10;4.63;;;25.40;39.80;;;;;;5000308;28;20134;-57
2023/04/24 08:06:48;;;;;;;8.38;4.57;;;25.40;39.70;;;;;;5002824;28;20046;-58
2023/04/24 08:09:15;;;;;;;6.70;3.60;;;25.40;39.80;;;;;;5002234;28;20053;-59
2023/04/24 08:11:43;;;;;;;9.70;4.60;;;25.40;39.60;;;;;;4998167;28;20060;-58
2023/04/24 08:14:12;;;;;;;9.15;4.78;;;25.40;39.60;;;;;;5000853;28;20453;-59
2023/04/24 08:16:39;;;;;;;13.80;7.13;;;25.40;39.60;;;;;;5003168;28;20391;-58
2023/04/24 08:19:07;;;;;;;15.73;7.15;;;25.50;39.60;;;;;;4999492;28;20053;-58
2023/04/24 08:21:34;;;;;;;14.13;8.10;;;25.50;39.50;;;;;;4992282;28;20057;-58
2023/04/24 08:24:04;;;;;;;18.20;8.07;;;25.60;39.60;;;;;;4997011;28;20104;-58
2023/04/24 08:26:32;;;;;;;17.27;8.35;;;25.60;39.50;;;;;;5001542;28;20057;-58
2023/04/24 08:28:59;;;;;;;16.42;7.32;;;25.60;39.40;;;;;;4999979;28;20053;-57
2023/04/24 08:31:26;;;;;;;14.85;7.60;;;25.60;39.30;;;;;;4997085;28;20068;-58
2023/04/24 08:33:54;;;;;;;13.38;6.60;;;25.70;39.30;;;;;;5001919;28;20112;-59
2023/04/24 08:36:21;;;;;;;13.32;7.30;;;25.70;39.30;;;;;;4999826;28;21561;-58
2023/04/24 08:38:52;;;;;;;13.75;7.28;;;25.70;39.30;;;;;;4998718;28;20486;-58
2023/04/24 08:41:21;;;;;;;9.32;5.95;;;25.80;39.30;;;;;;5003027;28;20149;-58
2023/04/24 08:43:48;;;;;;;8.75;5.57;;;25.80;39.20;;;;;;5002748;28;20050;-59
2023/04/24 08:46:16;;;;;;;10.27;5.97;;;25.80;39.30;;;;;;5003120;28;20046;-58
2023/04/24 08:48:43;;;;;;;12.60;5.95;;;25.80;39.50;;;;;;5000826;28;20541;-58
2023/04/24 08:51:11;;;;;;;9.93;5.28;;;25.80;39.60;;;;;;5000646;28;20045;-57
2023/04/24 08:53:41;;;;;;;8.68;5.20;;;25.90;39.60;;;;;;4998987;28;20168;-58
2023/04/24 08:56:09;;;;;;;10.75;5.93;;;25.90;39.50;;;;;;5001456;28;20137;-57
2023/04/24 08:58:36;;;;;;;10.52;5.40;;;26.00;39.50;;;;;;4998996;28;20081;-58
2023/04/24 09:01:05;;;;;;;11.10;6.15;;;26.00;39.40;;;;;;5001103;28;20049;-59
2023/04/24 09:03:33;;;;;;;11.48;5.55;;;26.00;39.50;;;;;;5002059;28;20134;-59
2023/04/24 09:06:02;;;;;;;12.30;6.47;;;26.00;39.50;;;;;;5002449;28;20383;-60
2023/04/24 09:08:30;;;;;;;8.82;5.07;;;26.00;39.60;;;;;;4998274;28;20161;-59
2023/04/24 09:10:58;;;;;;;10.45;4.97;;;26.10;39.70;;;;;;5001809;28;20129;-59
2023/04/24 09:13:27;;;;;;;10.57;5.65;;;26.10;39.70;;;;;;4997923;28;20060;-58
2023/04/24 09:15:57;;;;;;;9.65;5.93;;;26.10;39.60;;;;;;5002508;28;20080;-58
2023/04/24 09:18:24;;;;;;;9.05;5.28;;;26.10;39.50;;;;;;5001011;28;20050;-58
2023/04/24 09:21:07;;;;;;;10.63;5.75;;;26.10;39.40;;;;;;5006354;28;20073;-58
2023/04/24 09:23:35;;;;;;;11.52;7.10;;;26.10;39.40;;;;;;5008039;28;20062;-58
2023/04/24 09:26:07;;;;;;;10.85;5.30;;;26.20;39.50;;;;;;5005544;28;20417;-59
2023/04/24 09:28:39;;;;;;;11.45;5.38;;;26.20;39.40;;;;;;5004952;28;20057;-59
2023/04/24 09:31:18;;;;;;;13.38;5.70;;;26.30;39.60;;;;;;5000201;28;20080;-57
2023/04/24 09:33:58;;;;;;;12.00;5.90;;;26.30;39.70;;;;;;5007797;28;20058;-58
2023/04/24 09:36:37;;;;;;;8.27;5.40;;;26.30;39.60;;;;;;5002761;28;20054;-57
2023/04/24 09:39:15;;;;;;;13.27;5.90;;;26.30;39.50;;;;;;5003736;28;20050;-58
2023/04/24 09:42:01;;;;;;;10.40;5.70;;;26.30;39.50;;;;;;5003483;28;20064;-58
2023/04/24 09:44:28;;;;;;;9.75;5.55;;;26.40;39.60;;;;;;4988445;28;20046;-58
2023/04/24 09:46:58;;;;;;;16.75;6.00;;;26.30;39.60;;;;;;5003919;28;20053;-59
2023/04/24 09:49:30;;;;;;;;;;;26.40;39.60;;;;;;4999582;28;20103;-59
2023/04/24 09:52:06;;;;;;;13.27;5.97;;;26.40;39.60;;;;;;5006167;28;20008;-58
2023/04/24 09:54:33;;;;;;;8.80;5.35;;;26.30;39.60;;;;;;5003979;28;20486;-58
2023/04/24 09:57:01;;;;;;;9.80;6.32;;;26.30;39.50;;;;;;5004810;28;21294;-58
2023/04/24 09:59:30;;;;;;;9.80;5.80;;;26.30;39.50;;;;;;5004783;28;20131;-59
2023/04/24 10:01:59;;;;;;;14.95;6.72;;;26.30;39.50;;;;;;5002819;28;20055;-58
2023/04/24 10:04:28;;;;;;;10.77;6.20;;;26.30;39.70;;;;;;5003866;28;20053;-59
2023/04/24 10:06:57;;;;;;;11.45;6.47;;;26.30;39.60;;;;;;5003988;28;20077;-59
2023/04/24 10:09:26;;;;;;;11.15;5.85;;;26.30;39.60;;;;;;5005584;28;20057;-59
2023/04/24 10:11:54;;;;;;;13.45;6.32;;;26.30;39.60;;;;;;5004464;28;20140;-59
2023/04/24 10:14:24;;;;;;;12.00;6.15;;;26.30;39.50;;;;;;4999835;28;20140;-58
2023/04/24 10:16:56;;;;;;;;;;;26.30;39.60;;;;;;5001885;28;20038;-58
2023/04/24 10:19:26;;;;;;;11.45;6.00;;;26.20;39.60;;;;;;5004433;28;19957;-58
2023/04/24 10:21:55;;;;;;;8.93;5.05;;;26.20;39.60;;;;;;5004075;28;20064;-58
2023/04/24 10:24:22;;;;;;;10.05;6.28;;;26.20;39.60;;;;;;5006616;28;20046;-59
2023/04/24 10:26:50;;;;;;;12.57;6.25;;;26.30;39.60;;;;;;5003110;28;20054;-60
2023/04/24 10:29:18;;;;;;;10.38;5.90;;;26.30;39.60;;;;;;5003969;28;20509;-63
2023/04/24 10:31:46;;;;;;;9.15;6.35;;;26.30;39.40;;;;;;5003092;28;20132;-61
2023/04/24 10:34:16;;;;;;;9.32;5.95;;;26.30;39.30;;;;;;5000786;28;20050;-59
2023/04/24 10:36:50;;;;;;;10.10;6.57;;;26.40;39.30;;;;;;5003068;28;20069;-59
2023/04/24 10:39:19;;;;;;;10.63;5.68;;;26.40;39.30;;;;;;5004421;28;20045;-59
2023/04/24 10:41:57;;;;;;;10.15;5.88;;;26.50;39.30;;;;;;5003942;28;20057;-59
2023/04/24 10:44:24;;;;;;;10.10;4.80;;;26.50;39.30;;;;;;5002678;28;20141;-59
2023/04/24 10:46:55;;;;;;;11.48;5.70;;;26.50;39.20;;;;;;5004237;28;20177;-62
2023/04/24 10:49:31;;;;;;;13.43;6.75;;;26.50;39.10;;;;;;5004215;28;20073;-59
2023/04/24 10:52:05;;;;;;;12.25;5.85;;;26.50;39.20;;;;;;5002148;28;20097;-59
2023/04/24 10:54:45;;;;;;;9.18;5.68;;;26.50;39.20;;;;;;5001681;28;20037;-58
2023/04/24 10:57:29;;;;;;;10.68;5.57;;;26.50;39.10;;;;;;5003221;28;20088;-56
2023/04/24 11:00:21;;;;;;;10.80;5.18;;;26.50;39.10;;;;;;5001216;28;20073;-59
2023/04/24 11:02:50;;;;;;;11.23;5.15;;;26.40;39.00;;;;;;5001850;28;20053;-60
2023/04/24 11:05:18;;;;;;;8.93;5.05;;;26.40;39.20;;;;;;5000257;28;20080;-60
2023/04/24 11:08:21;;;;;;;8.80;5.00;;;26.40;39.30;;;;;;5002628;28;20045;-60
2023/04/24 11:10:58;;;;;;;8.82;5.03;;;26.40;39.20;;;;;;5004480;28;20068;-62
2023/04/24 11:13:27;;;;;;;12.00;5.70;;;26.40;39.30;;;;;;5002454;28;20046;-62
2023/04/24 11:16:20;;;;;;;6.85;4.25;;;26.40;39.30;;;;;;4999798;28;20470;-60
2023/04/24 11:18:54;;;;;;;10.23;4.40;;;26.40;39.20;;;;;;5001338;28;21408;-57
2023/04/24 11:21:22;;;;;;;9.02;4.65;;;26.40;39.30;;;;;;4998382;28;20058;-59
2023/04/24 11:23:50;;;;;;;7.65;5.03;;;26.40;39.30;;;;;;5002057;28;20513;-58
2023/04/24 11:26:30;;;;;;;6.28;3.97;;;26.40;39.50;;;;;;5003699;28;20057;-65
2023/04/24 11:29:07;;;;;;;8.95;4.38;;;26.40;39.60;;;;;;5000371;28;20050;-57
2023/04/24 11:31:37;;;;;;;8.38;4.70;;;26.40;39.50;;;;;;5001774;28;20069;-62
2023/04/24 11:34:13;;;;;;;6.93;4.13;;;26.30;39.50;;;;;;5001519;28;20042;-59
2023/04/24 11:36:44;;;;;;;9.63;5.05;;;26.30;39.70;;;;;;4997284;28;20049;-59
2023/04/24 11:39:11;;;;;;;6.78;4.30;;;26.30;39.70;;;;;;5000992;28;20169;-58
2023/04/24 11:41:39;;;;;;;7.35;4.50;;;26.30;39.80;;;;;;5003616;28;20133;-58
2023/04/24 11:44:10;;;;;;;7.97;4.13;;;26.30;39.80;;;;;;5001045;28;20057;-57
2023/04/24 11:46:39;;;;;;;7.63;4.07;;;26.30;39.80;;;;;;5004087;28;20080;-57
2023/04/24 11:49:07;;;;;;;5.32;3.78;;;26.30;39.60;;;;;;4998012;28;20057;-58
2023/04/24 11:51:35;;;;;;;7.60;3.85;;;26.30;39.50;;;;;;4997562;28;20053;-58
2023/04/24 11:54:17;;;;;;;8.20;4.55;;;26.30;39.50;;;;;;4992569;28;20053;-61
2023/04/24 11:56:47;;;;;;;5.40;3.85;;;26.30;39.90;;;;;;5009803;28;20169;-59
2023/04/24 11:59:15;;;;;;;5.25;3.70;;;26.30;40.70;;;;;;5002996;28;20134;-60
2023/04/24 12:01:44;;;;;;;4.80;3.55;;;26.40;39.90;;;;;;5003402;28;20050;-58
2023/04/24 12:04:12;;;;;;;8.75;3.78;;;26.40;39.70;;;;;;5001918;28;20049;-58
2023/04/24 12:06:40;;;;;;;8.90;4.53;;;26.40;39.60;;;;;;5002491;28;20532;-58
2023/04/24 12:09:09;;;;;;;5.43;3.10;;;26.40;39.70;;;;;;5003138;28;20056;-57
2023/04/24 12:11:54;;;;;;;4.85;3.08;;;26.40;39.90;;;;;;5000941;28;20484;-56
2023/04/24 12:14:21;;;;;;;4.60;3.05;;;26.40;39.70;;;;;;5000503;28;20557;-56
2023/04/24 12:16:50;;;;;;;5.28;3.22;;;26.40;39.90;;;;;;5001219;28;20076;-59
2023/04/24 12:19:24;;;;;;;3.78;2.42;;;26.40;39.80;;;;;;4999032;28;20125;-56
2023/04/24 12:22:01;;;;;;;5.70;2.83;;;26.40;39.70;;;;;;5002919;28;20133;-56
2023/04/24 12:24:30;;;;;;;4.25;2.72;;;26.40;39.70;;;;;;5003090;28;20476;-58
2023/04/24 12:26:57;;;;;;;7.35;3.40;;;26.40;39.70;;;;;;5002264;28;20088;-56
2023/04/24 12:29:25;;;;;;;5.63;2.97;;;26.30;39.50;;;;;;4998150;28;20050;-59
2023/04/24 12:31:53;;;;;;;4.63;3.15;;;26.30;39.60;;;;;;5001300;28;20132;-58
2023/04/24 12:34:23;;;;;;;4.10;2.83;;;26.30;39.60;;;;;;5000530;28;20536;-58
2023/04/24 12:36:50;;;;;;;4.63;3.15;;;26.30;40.40;;;;;;4999868;28;20055;-58
2023/04/24 12:39:19;;;;;;;6.13;2.70;;;26.30;39.90;;;;;;5000177;28;20046;-58
2023/04/24 12:42:00;;;;;;;6.15;3.45;;;26.30;40.00;;;;;;4984485;28;20057;-58
2023/04/24 12:44:34;;;;;;;6.53;3.17;;;26.20;40.00;;;;;;4999953;28;20112;-58
2023/04/24 12:47:01;;;;;;;5.70;3.10;;;26.20;40.10;;;;;;4999516;28;20042;-58
2023/04/24 12:49:31;;;;;;;6.28;2.67;;;26.20;40.10;;;;;;5000172;28;20049;-58
2023/04/24 12:51:58;;;;;;;4.87;2.73;;;26.20;40.10;;;;;;5001624;28;20077;-59
2023/04/24 12:54:25;;;;;;;2.85;2.63;;;26.20;40.10;;;;;;5002102;28;20299;-57